sensor_id;sensor_type;location;lat;lon;timestamp;P1;durP1;ratioP1;P2;durP2;ratioP2
1414;SDS011;702;49.466;11.086;2022-10-22T00:00:12;8.13;;;6.40;;
1414;SDS011;702;49.466;11.086;2022-10-22T00:02:41;6.00;;;5.40;;
1414;SDS011;702;49.466;11.086;2022-10-22T00:05:09;6.37;;;5.40;;
1414;SDS011;702;49.466;11.086;2022-10-22T00:07:37;6.60;;;5.50;;
1414;SDS011;702;49.466;11.086;2022-10-22T00:10:06;9.17;;;6.07;;
1414;SDS011;702;49.466;11.086;2022-10-22T00:12:36;9.30;;;5.80;;
1414;SDS011;702;49.466;11.086;2022-10-22T00:15:03;7.23;;;6.00;;
1414;SDS011;702;49.466;11.086;2022-10-22T00:17:32;8.27;;;5.50;;
1414;SDS011;702;49.466;11.086;2022-10-22T00:20:00;6.80;;;6.10;;
1414;SDS011;702;49.466;11.086;2022-10-22T00:22:27;8.60;;;5.87;;
1414;SDS011;702;49.466;11.086;2022-10-22T00:24:55;7.27;;;5.77;;
1414;SDS011;702;49.466;11.086;2022-10-22T00:27:22;9.30;;;5.83;;
1414;SDS011;702;49.466;11.086;2022-10-22T00:29:51;9.27;;;6.30;;
1414;SDS011;702;49.466;11.086;2022-10-22T00:32:18;10.03;;;6.83;;
1414;SDS011;702;49.466;11.086;2022-10-22T00:34:45;8.57;;;6.90;;
1414;SDS011;702;49.466;11.086;2022-10-22T00:37:13;6.80;;;6.13;;
1414;SDS011;702;49.466;11.086;2022-10-22T00:39:40;7.00;;;6.17;;
1414;SDS011;702;49.466;11.086;2022-10-22T00:42:09;6.53;;;5.87;;
1414;SDS011;702;49.466;11.086;2022-10-22T00:45:03;7.43;;;6.70;;
1414;SDS011;702;49.466;11.086;2022-10-22T00:47:41;10.03;;;7.23;;
1414;SDS011;702;49.466;11.086;2022-10-22T00:50:13;7.43;;;6.73;;
1414;SDS011;702;49.466;11.086;2022-10-22T00:52:43;12.07;;;7.23;;
1414;SDS011;702;49.466;11.086;2022-10-22T00:55:10;10.10;;;7.10;;
1414;SDS011;702;49.466;11.086;2022-10-22T00:57:39;10.80;;;7.60;;
1414;SDS011;702;49.466;11.086;2022-10-22T01:00:11;7.60;;;6.80;;
1414;SDS011;702;49.466;11.086;2022-10-22T01:02:40;10.70;;;7.30;;
1414;SDS011;702;49.466;11.086;2022-10-22T01:05:08;7.90;;;7.10;;
1414;SDS011;702;49.466;11.086;2022-10-22T01:07:37;7.60;;;6.90;;
1414;SDS011;702;49.466;11.086;2022-10-22T01:10:10;7.90;;;6.67;;
1414;SDS011;702;49.466;11.086;2022-10-22T01:13:00;10.83;;;6.83;;
1414;SDS011;702;49.466;11.086;2022-10-22T01:15:47;7.60;;;6.73;;
1414;SDS011;702;49.466;11.086;2022-10-22T01:18:26;9.10;;;8.17;;
1414;SDS011;702;49.466;11.086;2022-10-22T01:21:14;9.33;;;8.20;;
1414;SDS011;702;49.466;11.086;2022-10-22T01:27:04;7.83;;;7.03;;
1414;SDS011;702;49.466;11.086;2022-10-22T01:29:42;13.57;;;7.30;;
1414;SDS011;702;49.466;11.086;2022-10-22T01:32:14;11.27;;;7.97;;
1414;SDS011;702;49.466;11.086;2022-10-22T01:34:47;7.70;;;6.17;;
1414;SDS011;702;49.466;11.086;2022-10-22T01:37:18;5.43;;;4.93;;
1414;SDS011;702;49.466;11.086;2022-10-22T01:39:49;6.63;;;4.87;;
1414;SDS011;702;49.466;11.086;2022-10-22T01:42:18;6.23;;;4.70;;
1414;SDS011;702;49.466;11.086;2022-10-22T01:44:47;5.67;;;5.17;;
1414;SDS011;702;49.466;11.086;2022-10-22T01:47:18;6.60;;;4.50;;
1414;SDS011;702;49.466;11.086;2022-10-22T01:50:08;5.23;;;4.03;;
1414;SDS011;702;49.466;11.086;2022-10-22T01:53:00;6.13;;;3.60;;
1414;SDS011;702;49.466;11.086;2022-10-22T01:55:48;4.83;;;3.33;;
1414;SDS011;702;49.466;11.086;2022-10-22T01:58:27;4.93;;;3.03;;
1414;SDS011;702;49.466;11.086;2022-10-22T02:01:06;3.43;;;2.77;;
1414;SDS011;702;49.466;11.086;2022-10-22T02:03:44;3.13;;;2.30;;
1414;SDS011;702;49.466;11.086;2022-10-22T02:06:21;4.03;;;2.23;;
1414;SDS011;702;49.466;11.086;2022-10-22T02:08:51;2.33;;;1.90;;
1414;SDS011;702;49.466;11.086;2022-10-22T02:11:19;2.33;;;2.03;;
1414;SDS011;702;49.466;11.086;2022-10-22T02:13:48;2.83;;;2.00;;
1414;SDS011;702;49.466;11.086;2022-10-22T02:16:22;2.20;;;1.70;;
1414;SDS011;702;49.466;11.086;2022-10-22T02:18:53;1.87;;;1.57;;
1414;SDS011;702;49.466;11.086;2022-10-22T02:21:25;4.80;;;1.57;;
1414;SDS011;702;49.466;11.086;2022-10-22T02:23:52;2.70;;;1.83;;
1414;SDS011;702;49.466;11.086;2022-10-22T02:26:21;2.20;;;1.90;;
1414;SDS011;702;49.466;11.086;2022-10-22T02:28:57;1.90;;;1.47;;
1414;SDS011;702;49.466;11.086;2022-10-22T02:31:34;3.13;;;1.67;;
1414;SDS011;702;49.466;11.086;2022-10-22T02:34:06;2.63;;;1.70;;
1414;SDS011;702;49.466;11.086;2022-10-22T02:36:38;1.70;;;1.37;;
1414;SDS011;702;49.466;11.086;2022-10-22T02:39:08;2.00;;;1.63;;
1414;SDS011;702;49.466;11.086;2022-10-22T02:41:36;2.20;;;1.50;;
1414;SDS011;702;49.466;11.086;2022-10-22T02:44:07;1.60;;;1.50;;
1414;SDS011;702;49.466;11.086;2022-10-22T02:46:37;2.23;;;1.40;;
1414;SDS011;702;49.466;11.086;2022-10-22T02:49:05;2.63;;;2.17;;
1414;SDS011;702;49.466;11.086;2022-10-22T02:51:34;1.67;;;1.50;;
1414;SDS011;702;49.466;11.086;2022-10-22T02:54:01;2.90;;;1.70;;
1414;SDS011;702;49.466;11.086;2022-10-22T02:56:29;4.03;;;2.20;;
1414;SDS011;702;49.466;11.086;2022-10-22T02:58:56;2.50;;;2.20;;
1414;SDS011;702;49.466;11.086;2022-10-22T03:01:23;3.87;;;2.20;;
1414;SDS011;702;49.466;11.086;2022-10-22T03:03:54;3.33;;;2.97;;
1414;SDS011;702;49.466;11.086;2022-10-22T03:06:22;4.70;;;2.53;;
1414;SDS011;702;49.466;11.086;2022-10-22T03:08:49;5.23;;;2.13;;
1414;SDS011;702;49.466;11.086;2022-10-22T03:11:17;3.03;;;2.40;;
1414;SDS011;702;49.466;11.086;2022-10-22T03:13:44;2.83;;;2.63;;
1414;SDS011;702;49.466;11.086;2022-10-22T03:16:12;4.00;;;2.30;;
1414;SDS011;702;49.466;11.086;2022-10-22T03:18:39;2.67;;;2.33;;
1414;SDS011;702;49.466;11.086;2022-10-22T03:21:08;4.30;;;2.73;;
1414;SDS011;702;49.466;11.086;2022-10-22T03:23:46;3.40;;;3.10;;
1414;SDS011;702;49.466;11.086;2022-10-22T03:26:14;3.53;;;3.00;;
1414;SDS011;702;49.466;11.086;2022-10-22T03:28:44;2.97;;;2.77;;
1414;SDS011;702;49.466;11.086;2022-10-22T03:31:13;5.10;;;3.87;;
1414;SDS011;702;49.466;11.086;2022-10-22T03:33:43;12.30;;;4.13;;
1414;SDS011;702;49.466;11.086;2022-10-22T03:36:12;3.60;;;3.00;;
1414;SDS011;702;49.466;11.086;2022-10-22T03:38:40;4.13;;;3.60;;
1414;SDS011;702;49.466;11.086;2022-10-22T03:41:07;5.13;;;3.23;;
1414;SDS011;702;49.466;11.086;2022-10-22T03:43:36;3.80;;;3.50;;
1414;SDS011;702;49.466;11.086;2022-10-22T03:46:07;3.50;;;3.20;;
1414;SDS011;702;49.466;11.086;2022-10-22T03:48:34;3.50;;;3.20;;
1414;SDS011;702;49.466;11.086;2022-10-22T03:51:01;4.70;;;2.77;;
1414;SDS011;702;49.466;11.086;2022-10-22T03:53:30;3.77;;;2.70;;
1414;SDS011;702;49.466;11.086;2022-10-22T03:55:57;4.27;;;2.67;;
1414;SDS011;702;49.466;11.086;2022-10-22T03:58:25;3.37;;;2.93;;
1414;SDS011;702;49.466;11.086;2022-10-22T04:00:52;3.07;;;2.77;;
1414;SDS011;702;49.466;11.086;2022-10-22T04:03:20;2.60;;;2.40;;
1414;SDS011;702;49.466;11.086;2022-10-22T04:05:47;3.93;;;2.77;;
1414;SDS011;702;49.466;11.086;2022-10-22T04:08:14;2.93;;;2.53;;
1414;SDS011;702;49.466;11.086;2022-10-22T04:10:43;3.30;;;2.40;;
1414;SDS011;702;49.466;11.086;2022-10-22T04:13:17;6.43;;;2.50;;
1414;SDS011;702;49.466;11.086;2022-10-22T04:15:44;2.50;;;2.20;;
1414;SDS011;702;49.466;11.086;2022-10-22T04:18:11;3.80;;;1.90;;
1414;SDS011;702;49.466;11.086;2022-10-22T04:20:40;2.10;;;1.93;;
1414;SDS011;702;49.466;11.086;2022-10-22T04:23:07;2.53;;;2.33;;
1414;SDS011;702;49.466;11.086;2022-10-22T04:25:34;2.53;;;2.10;;
1414;SDS011;702;49.466;11.086;2022-10-22T04:28:04;2.73;;;2.20;;
1414;SDS011;702;49.466;11.086;2022-10-22T04:30:32;2.73;;;2.17;;
1414;SDS011;702;49.466;11.086;2022-10-22T04:33:00;2.87;;;2.30;;
1414;SDS011;702;49.466;11.086;2022-10-22T04:35:27;2.57;;;2.30;;
1414;SDS011;702;49.466;11.086;2022-10-22T04:37:55;3.83;;;2.30;;
1414;SDS011;702;49.466;11.086;2022-10-22T04:40:23;2.63;;;2.10;;
1414;SDS011;702;49.466;11.086;2022-10-22T04:42:50;3.10;;;2.43;;
1414;SDS011;702;49.466;11.086;2022-10-22T04:45:19;2.87;;;2.50;;
1414;SDS011;702;49.466;11.086;2022-10-22T04:47:46;3.20;;;2.87;;
1414;SDS011;702;49.466;11.086;2022-10-22T04:50:13;2.57;;;2.37;;
1414;SDS011;702;49.466;11.086;2022-10-22T04:52:41;2.87;;;2.10;;
1414;SDS011;702;49.466;11.086;2022-10-22T04:55:08;2.53;;;1.90;;
1414;SDS011;702;49.466;11.086;2022-10-22T04:57:36;2.23;;;2.10;;
1414;SDS011;702;49.466;11.086;2022-10-22T05:00:03;3.00;;;2.20;;
1414;SDS011;702;49.466;11.086;2022-10-22T05:02:33;2.53;;;2.30;;
1414;SDS011;702;49.466;11.086;2022-10-22T05:05:01;2.57;;;1.77;;
1414;SDS011;702;49.466;11.086;2022-10-22T05:07:28;3.20;;;1.80;;
1414;SDS011;702;49.466;11.086;2022-10-22T05:09:56;4.07;;;2.00;;
1414;SDS011;702;49.466;11.086;2022-10-22T05:12:23;2.53;;;2.33;;
1414;SDS011;702;49.466;11.086;2022-10-22T05:14:50;4.07;;;2.30;;
1414;SDS011;702;49.466;11.086;2022-10-22T05:17:18;2.60;;;2.07;;
1414;SDS011;702;49.466;11.086;2022-10-22T05:19:47;2.20;;;2.00;;
1414;SDS011;702;49.466;11.086;2022-10-22T05:22:14;2.33;;;2.10;;
1414;SDS011;702;49.466;11.086;2022-10-22T05:24:41;4.67;;;3.00;;
1414;SDS011;702;49.466;11.086;2022-10-22T05:27:08;2.33;;;2.13;;
1414;SDS011;702;49.466;11.086;2022-10-22T05:29:35;2.83;;;2.30;;
1414;SDS011;702;49.466;11.086;2022-10-22T05:32:03;3.37;;;2.90;;
1414;SDS011;702;49.466;11.086;2022-10-22T05:34:30;4.77;;;2.90;;
1414;SDS011;702;49.466;11.086;2022-10-22T05:37:02;6.10;;;3.50;;
1414;SDS011;702;49.466;11.086;2022-10-22T05:39:29;7.07;;;4.27;;
1414;SDS011;702;49.466;11.086;2022-10-22T05:41:56;4.57;;;4.17;;
1414;SDS011;702;49.466;11.086;2022-10-22T05:44:23;3.93;;;3.60;;
1414;SDS011;702;49.466;11.086;2022-10-22T05:46:51;6.70;;;4.03;;
1414;SDS011;702;49.466;11.086;2022-10-22T05:49:18;4.93;;;4.30;;
1414;SDS011;702;49.466;11.086;2022-10-22T05:51:45;6.70;;;3.97;;
1414;SDS011;702;49.466;11.086;2022-10-22T05:54:15;4.23;;;3.90;;
1414;SDS011;702;49.466;11.086;2022-10-22T05:56:44;4.17;;;3.87;;
1414;SDS011;702;49.466;11.086;2022-10-22T05:59:11;4.80;;;4.23;;
1414;SDS011;702;49.466;11.086;2022-10-22T06:01:39;4.80;;;4.37;;
1414;SDS011;702;49.466;11.086;2022-10-22T06:04:08;4.93;;;3.90;;
1414;SDS011;702;49.466;11.086;2022-10-22T06:06:37;5.70;;;4.57;;
1414;SDS011;702;49.466;11.086;2022-10-22T06:09:10;5.30;;;4.20;;
1414;SDS011;702;49.466;11.086;2022-10-22T06:11:43;4.50;;;4.10;;
1414;SDS011;702;49.466;11.086;2022-10-22T06:14:11;3.93;;;3.53;;
1414;SDS011;702;49.466;11.086;2022-10-22T06:16:39;5.20;;;4.23;;
1414;SDS011;702;49.466;11.086;2022-10-22T06:19:08;5.33;;;4.00;;
1414;SDS011;702;49.466;11.086;2022-10-22T06:21:36;5.10;;;4.10;;
1414;SDS011;702;49.466;11.086;2022-10-22T06:24:04;4.10;;;3.57;;
1414;SDS011;702;49.466;11.086;2022-10-22T06:26:34;5.40;;;4.10;;
1414;SDS011;702;49.466;11.086;2022-10-22T06:29:02;4.80;;;3.53;;
1414;SDS011;702;49.466;11.086;2022-10-22T06:31:30;8.00;;;4.10;;
1414;SDS011;702;49.466;11.086;2022-10-22T06:34:01;4.03;;;3.67;;
1414;SDS011;702;49.466;11.086;2022-10-22T06:36:29;8.40;;;4.47;;
1414;SDS011;702;49.466;11.086;2022-10-22T06:38:56;6.87;;;5.10;;
1414;SDS011;702;49.466;11.086;2022-10-22T06:41:24;4.23;;;3.93;;
1414;SDS011;702;49.466;11.086;2022-10-22T06:43:53;4.80;;;3.90;;
1414;SDS011;702;49.466;11.086;2022-10-22T06:46:22;4.73;;;4.10;;
1414;SDS011;702;49.466;11.086;2022-10-22T06:48:50;3.70;;;2.83;;
1414;SDS011;702;49.466;11.086;2022-10-22T06:51:19;6.97;;;4.50;;
1414;SDS011;702;49.466;11.086;2022-10-22T06:53:47;3.73;;;3.30;;
1414;SDS011;702;49.466;11.086;2022-10-22T06:56:15;4.13;;;3.73;;
1414;SDS011;702;49.466;11.086;2022-10-22T06:58:46;6.03;;;4.17;;
1414;SDS011;702;49.466;11.086;2022-10-22T07:01:15;4.10;;;3.70;;
1414;SDS011;702;49.466;11.086;2022-10-22T07:03:45;6.60;;;3.63;;
1414;SDS011;702;49.466;11.086;2022-10-22T07:06:13;8.43;;;3.90;;
1414;SDS011;702;49.466;11.086;2022-10-22T07:08:40;6.90;;;3.50;;
1414;SDS011;702;49.466;11.086;2022-10-22T07:11:09;4.47;;;3.60;;
1414;SDS011;702;49.466;11.086;2022-10-22T07:13:38;6.50;;;3.67;;
1414;SDS011;702;49.466;11.086;2022-10-22T07:16:07;4.10;;;3.63;;
1414;SDS011;702;49.466;11.086;2022-10-22T07:18:36;7.33;;;3.90;;
1414;SDS011;702;49.466;11.086;2022-10-22T07:21:05;5.80;;;4.07;;
1414;SDS011;702;49.466;11.086;2022-10-22T07:23:34;6.70;;;4.47;;
1414;SDS011;702;49.466;11.086;2022-10-22T07:26:01;5.80;;;4.23;;
1414;SDS011;702;49.466;11.086;2022-10-22T07:28:31;3.57;;;3.27;;
1414;SDS011;702;49.466;11.086;2022-10-22T07:30:59;4.90;;;3.70;;
1414;SDS011;702;49.466;11.086;2022-10-22T07:33:26;7.53;;;3.40;;
1414;SDS011;702;49.466;11.086;2022-10-22T07:35:57;4.63;;;4.13;;
1414;SDS011;702;49.466;11.086;2022-10-22T07:38:26;2.90;;;2.70;;
1414;SDS011;702;49.466;11.086;2022-10-22T07:40:54;2.20;;;2.00;;
1414;SDS011;702;49.466;11.086;2022-10-22T07:43:21;6.20;;;2.97;;
1414;SDS011;702;49.466;11.086;2022-10-22T07:45:49;3.53;;;2.40;;
1414;SDS011;702;49.466;11.086;2022-10-22T07:48:16;4.43;;;3.30;;
1414;SDS011;702;49.466;11.086;2022-10-22T07:50:44;3.60;;;2.50;;
1414;SDS011;702;49.466;11.086;2022-10-22T07:53:12;6.43;;;3.03;;
1414;SDS011;702;49.466;11.086;2022-10-22T07:55:40;2.50;;;2.10;;
1414;SDS011;702;49.466;11.086;2022-10-22T07:58:07;5.33;;;2.40;;
1414;SDS011;702;49.466;11.086;2022-10-22T08:00:34;2.97;;;2.60;;
1414;SDS011;702;49.466;11.086;2022-10-22T08:03:02;2.73;;;2.47;;
1414;SDS011;702;49.466;11.086;2022-10-22T08:05:29;5.37;;;2.93;;
1414;SDS011;702;49.466;11.086;2022-10-22T08:07:56;3.60;;;2.57;;
1414;SDS011;702;49.466;11.086;2022-10-22T08:10:25;6.60;;;2.80;;
1414;SDS011;702;49.466;11.086;2022-10-22T08:12:52;5.20;;;3.10;;
1414;SDS011;702;49.466;11.086;2022-10-22T08:15:19;3.50;;;2.70;;
1414;SDS011;702;49.466;11.086;2022-10-22T08:17:47;4.13;;;2.70;;
1414;SDS011;702;49.466;11.086;2022-10-22T08:20:14;3.03;;;2.73;;
1414;SDS011;702;49.466;11.086;2022-10-22T08:22:42;2.70;;;2.50;;
1414;SDS011;702;49.466;11.086;2022-10-22T08:25:10;5.13;;;3.67;;
1414;SDS011;702;49.466;11.086;2022-10-22T08:27:39;4.10;;;2.90;;
1414;SDS011;702;49.466;11.086;2022-10-22T08:30:07;2.83;;;2.53;;
1414;SDS011;702;49.466;11.086;2022-10-22T08:32:35;4.17;;;2.63;;
1414;SDS011;702;49.466;11.086;2022-10-22T08:35:03;4.00;;;2.10;;
1414;SDS011;702;49.466;11.086;2022-10-22T08:37:30;2.50;;;2.30;;
1414;SDS011;702;49.466;11.086;2022-10-22T08:39:58;7.17;;;4.00;;
1414;SDS011;702;49.466;11.086;2022-10-22T08:42:36;4.00;;;2.77;;
1414;SDS011;702;49.466;11.086;2022-10-22T08:45:31;2.80;;;2.60;;
1414;SDS011;702;49.466;11.086;2022-10-22T08:48:11;3.50;;;2.03;;
1414;SDS011;702;49.466;11.086;2022-10-22T08:50:53;4.77;;;2.23;;
1414;SDS011;702;49.466;11.086;2022-10-22T08:53:24;2.73;;;2.23;;
1414;SDS011;702;49.466;11.086;2022-10-22T08:55:57;2.77;;;2.00;;
1414;SDS011;702;49.466;11.086;2022-10-22T08:58:27;1.60;;;1.50;;
1414;SDS011;702;49.466;11.086;2022-10-22T09:01:02;1.60;;;1.50;;
1414;SDS011;702;49.466;11.086;2022-10-22T09:03:40;2.43;;;1.70;;
1414;SDS011;702;49.466;11.086;2022-10-22T09:06:14;2.23;;;1.50;;
1414;SDS011;702;49.466;11.086;2022-10-22T09:08:45;4.90;;;2.30;;
1414;SDS011;702;49.466;11.086;2022-10-22T09:11:23;2.80;;;2.27;;
1414;SDS011;702;49.466;11.086;2022-10-22T09:13:55;2.80;;;1.77;;
1414;SDS011;702;49.466;11.086;2022-10-22T09:16:26;1.80;;;1.30;;
1414;SDS011;702;49.466;11.086;2022-10-22T09:19:04;6.43;;;1.40;;
1414;SDS011;702;49.466;11.086;2022-10-22T09:21:45;2.20;;;1.37;;
1414;SDS011;702;49.466;11.086;2022-10-22T09:24:29;1.47;;;1.10;;
1414;SDS011;702;49.466;11.086;2022-10-22T09:27:05;1.33;;;1.20;;
1414;SDS011;702;49.466;11.086;2022-10-22T09:29:39;1.20;;;0.97;;
1414;SDS011;702;49.466;11.086;2022-10-22T09:32:07;1.90;;;1.00;;
1414;SDS011;702;49.466;11.086;2022-10-22T09:34:34;1.40;;;1.07;;
1414;SDS011;702;49.466;11.086;2022-10-22T09:37:02;2.60;;;1.20;;
1414;SDS011;702;49.466;11.086;2022-10-22T09:39:33;1.17;;;0.90;;
1414;SDS011;702;49.466;11.086;2022-10-22T09:42:04;1.70;;;0.83;;
1414;SDS011;702;49.466;11.086;2022-10-22T09:44:32;1.13;;;0.77;;
1414;SDS011;702;49.466;11.086;2022-10-22T09:47:03;1.77;;;0.70;;
1414;SDS011;702;49.466;11.086;2022-10-22T09:49:32;2.17;;;0.90;;
1414;SDS011;702;49.466;11.086;2022-10-22T09:52:01;3.00;;;1.40;;
1414;SDS011;702;49.466;11.086;2022-10-22T09:54:36;2.60;;;0.80;;
1414;SDS011;702;49.466;11.086;2022-10-22T09:57:12;1.13;;;0.90;;
1414;SDS011;702;49.466;11.086;2022-10-22T09:59:43;2.60;;;0.90;;
1414;SDS011;702;49.466;11.086;2022-10-22T10:02:15;1.40;;;0.80;;
1414;SDS011;702;49.466;11.086;2022-10-22T10:04:47;2.40;;;0.80;;
1414;SDS011;702;49.466;11.086;2022-10-22T10:07:16;1.10;;;1.00;;
1414;SDS011;702;49.466;11.086;2022-10-22T10:09:46;1.20;;;0.90;;
1414;SDS011;702;49.466;11.086;2022-10-22T10:12:19;1.50;;;0.90;;
1414;SDS011;702;49.466;11.086;2022-10-22T10:14:59;1.83;;;0.87;;
1414;SDS011;702;49.466;11.086;2022-10-22T10:17:39;1.63;;;0.83;;
1414;SDS011;702;49.466;11.086;2022-10-22T10:20:14;1.10;;;1.00;;
1414;SDS011;702;49.466;11.086;2022-10-22T10:22:54;1.30;;;0.70;;
1414;SDS011;702;49.466;11.086;2022-10-22T10:25:43;1.70;;;1.10;;
1414;SDS011;702;49.466;11.086;2022-10-22T10:28:24;1.53;;;0.60;;
1414;SDS011;702;49.466;11.086;2022-10-22T10:31:06;1.43;;;0.80;;
1414;SDS011;702;49.466;11.086;2022-10-22T10:33:48;2.70;;;1.43;;
1414;SDS011;702;49.466;11.086;2022-10-22T10:36:26;3.20;;;0.87;;
1414;SDS011;702;49.466;11.086;2022-10-22T10:39:03;1.30;;;0.73;;
1414;SDS011;702;49.466;11.086;2022-10-22T10:41:38;2.53;;;1.30;;
1414;SDS011;702;49.466;11.086;2022-10-22T10:44:20;3.40;;;2.00;;
1414;SDS011;702;49.466;11.086;2022-10-22T10:47:43;3.10;;;2.80;;
1414;SDS011;702;49.466;11.086;2022-10-22T10:50:25;2.80;;;0.80;;
1414;SDS011;702;49.466;11.086;2022-10-22T10:52:59;3.63;;;0.90;;
1414;SDS011;702;49.466;11.086;2022-10-22T10:55:41;4.07;;;1.10;;
1414;SDS011;702;49.466;11.086;2022-10-22T10:58:24;1.83;;;0.97;;
1414;SDS011;702;49.466;11.086;2022-10-22T11:01:02;1.60;;;0.80;;
1414;SDS011;702;49.466;11.086;2022-10-22T11:03:52;4.23;;;1.00;;
1414;SDS011;702;49.466;11.086;2022-10-22T11:06:34;2.90;;;0.90;;
1414;SDS011;702;49.466;11.086;2022-10-22T11:09:06;2.30;;;1.03;;
1414;SDS011;702;49.466;11.086;2022-10-22T11:11:47;1.30;;;0.60;;
1414;SDS011;702;49.466;11.086;2022-10-22T11:14:21;1.27;;;0.90;;
1414;SDS011;702;49.466;11.086;2022-10-22T11:16:57;3.97;;;0.73;;
1414;SDS011;702;49.466;11.086;2022-10-22T11:19:31;0.87;;;0.83;;
1414;SDS011;702;49.466;11.086;2022-10-22T11:22:08;1.70;;;1.00;;
1414;SDS011;702;49.466;11.086;2022-10-22T11:24:42;2.73;;;1.10;;
1414;SDS011;702;49.466;11.086;2022-10-22T11:27:18;2.40;;;0.93;;
1414;SDS011;702;49.466;11.086;2022-10-22T11:29:52;1.73;;;0.70;;
1414;SDS011;702;49.466;11.086;2022-10-22T11:32:27;2.00;;;0.93;;
1414;SDS011;702;49.466;11.086;2022-10-22T11:34:56;2.07;;;1.00;;
1414;SDS011;702;49.466;11.086;2022-10-22T11:37:31;1.10;;;0.83;;
1414;SDS011;702;49.466;11.086;2022-10-22T11:40:03;3.50;;;0.80;;
1414;SDS011;702;49.466;11.086;2022-10-22T11:42:35;1.60;;;0.97;;
1414;SDS011;702;49.466;11.086;2022-10-22T11:45:22;1.40;;;1.00;;
1414;SDS011;702;49.466;11.086;2022-10-22T11:47:56;2.17;;;1.17;;
1414;SDS011;702;49.466;11.086;2022-10-22T11:50:46;1.43;;;0.87;;
1414;SDS011;702;49.466;11.086;2022-10-22T11:53:19;2.87;;;1.10;;
1414;SDS011;702;49.466;11.086;2022-10-22T11:55:56;1.73;;;0.70;;
1414;SDS011;702;49.466;11.086;2022-10-22T11:58:45;1.20;;;0.93;;
1414;SDS011;702;49.466;11.086;2022-10-22T12:04:14;2.57;;;0.83;;
1414;SDS011;702;49.466;11.086;2022-10-22T12:06:57;2.60;;;0.70;;
1414;SDS011;702;49.466;11.086;2022-10-22T12:09:28;1.87;;;1.00;;
1414;SDS011;702;49.466;11.086;2022-10-22T12:12:02;1.50;;;0.50;;
1414;SDS011;702;49.466;11.086;2022-10-22T12:14:50;1.30;;;0.90;;
1414;SDS011;702;49.466;11.086;2022-10-22T12:17:19;1.20;;;0.73;;
1414;SDS011;702;49.466;11.086;2022-10-22T12:19:48;1.60;;;0.70;;
1414;SDS011;702;49.466;11.086;2022-10-22T12:22:22;1.43;;;0.93;;
1414;SDS011;702;49.466;11.086;2022-10-22T12:24:54;1.50;;;0.60;;
1414;SDS011;702;49.466;11.086;2022-10-22T12:27:27;3.87;;;0.90;;
1414;SDS011;702;49.466;11.086;2022-10-22T12:30:00;1.80;;;0.70;;
1414;SDS011;702;49.466;11.086;2022-10-22T12:32:38;1.17;;;1.00;;
1414;SDS011;702;49.466;11.086;2022-10-22T12:35:08;4.53;;;2.27;;
1414;SDS011;702;49.466;11.086;2022-10-22T12:37:41;2.23;;;1.17;;
1414;SDS011;702;49.466;11.086;2022-10-22T12:40:17;4.90;;;4.27;;
1414;SDS011;702;49.466;11.086;2022-10-22T12:42:47;5.77;;;3.90;;
1414;SDS011;702;49.466;11.086;2022-10-22T12:45:19;1.23;;;0.97;;
1414;SDS011;702;49.466;11.086;2022-10-22T12:47:47;2.97;;;2.03;;
1414;SDS011;702;49.466;11.086;2022-10-22T12:50:17;2.80;;;1.00;;
1414;SDS011;702;49.466;11.086;2022-10-22T12:52:46;2.73;;;1.40;;
1414;SDS011;702;49.466;11.086;2022-10-22T12:55:18;2.70;;;1.07;;
1414;SDS011;702;49.466;11.086;2022-10-22T12:57:50;1.97;;;1.23;;
1414;SDS011;702;49.466;11.086;2022-10-22T13:00:21;1.70;;;1.07;;
1414;SDS011;702;49.466;11.086;2022-10-22T13:02:51;1.57;;;1.17;;
1414;SDS011;702;49.466;11.086;2022-10-22T13:05:21;1.70;;;1.00;;
1414;SDS011;702;49.466;11.086;2022-10-22T13:07:52;1.10;;;1.00;;
1414;SDS011;702;49.466;11.086;2022-10-22T13:10:29;1.13;;;1.03;;
1414;SDS011;702;49.466;11.086;2022-10-22T13:12:59;2.73;;;0.70;;
1414;SDS011;702;49.466;11.086;2022-10-22T13:15:31;2.00;;;1.00;;
1414;SDS011;702;49.466;11.086;2022-10-22T13:18:05;1.27;;;0.73;;
1414;SDS011;702;49.466;11.086;2022-10-22T13:20:49;1.70;;;0.87;;
1414;SDS011;702;49.466;11.086;2022-10-22T13:23:22;4.93;;;0.80;;
1414;SDS011;702;49.466;11.086;2022-10-22T13:25:57;2.13;;;0.70;;
1414;SDS011;702;49.466;11.086;2022-10-22T13:28:26;5.23;;;1.13;;
1414;SDS011;702;49.466;11.086;2022-10-22T13:30:56;2.23;;;1.10;;
1414;SDS011;702;49.466;11.086;2022-10-22T13:33:25;2.90;;;1.00;;
1414;SDS011;702;49.466;11.086;2022-10-22T13:35:58;1.13;;;0.70;;
1414;SDS011;702;49.466;11.086;2022-10-22T13:38:25;1.23;;;0.40;;
1414;SDS011;702;49.466;11.086;2022-10-22T13:40:54;1.77;;;0.50;;
1414;SDS011;702;49.466;11.086;2022-10-22T13:43:23;0.80;;;0.60;;
1414;SDS011;702;49.466;11.086;2022-10-22T13:45:52;1.63;;;0.40;;
1414;SDS011;702;49.466;11.086;2022-10-22T13:48:22;1.27;;;0.40;;
1414;SDS011;702;49.466;11.086;2022-10-22T13:50:53;1.87;;;0.83;;
1414;SDS011;702;49.466;11.086;2022-10-22T13:53:21;4.73;;;0.80;;
1414;SDS011;702;49.466;11.086;2022-10-22T13:55:51;2.30;;;0.60;;
1414;SDS011;702;49.466;11.086;2022-10-22T13:58:21;1.40;;;0.73;;
1414;SDS011;702;49.466;11.086;2022-10-22T14:00:50;1.53;;;0.73;;
1414;SDS011;702;49.466;11.086;2022-10-22T14:03:21;1.20;;;0.70;;
1414;SDS011;702;49.466;11.086;2022-10-22T14:05:52;1.30;;;0.53;;
1414;SDS011;702;49.466;11.086;2022-10-22T14:08:20;0.93;;;0.70;;
1414;SDS011;702;49.466;11.086;2022-10-22T14:10:49;1.97;;;0.60;;
1414;SDS011;702;49.466;11.086;2022-10-22T14:13:18;2.27;;;0.77;;
1414;SDS011;702;49.466;11.086;2022-10-22T14:15:48;1.00;;;0.53;;
1414;SDS011;702;49.466;11.086;2022-10-22T14:18:18;1.47;;;0.70;;
1414;SDS011;702;49.466;11.086;2022-10-22T14:20:51;1.77;;;0.70;;
1414;SDS011;702;49.466;11.086;2022-10-22T14:23:20;2.53;;;0.77;;
1414;SDS011;702;49.466;11.086;2022-10-22T14:25:51;2.77;;;1.20;;
1414;SDS011;702;49.466;11.086;2022-10-22T14:28:20;3.47;;;1.10;;
1414;SDS011;702;49.466;11.086;2022-10-22T14:30:48;0.70;;;0.60;;
1414;SDS011;702;49.466;11.086;2022-10-22T14:33:17;1.33;;;0.70;;
1414;SDS011;702;49.466;11.086;2022-10-22T14:35:46;2.83;;;0.60;;
1414;SDS011;702;49.466;11.086;2022-10-22T14:38:14;1.83;;;0.70;;
1414;SDS011;702;49.466;11.086;2022-10-22T14:40:42;1.87;;;0.70;;
1414;SDS011;702;49.466;11.086;2022-10-22T14:43:11;3.90;;;0.67;;
1414;SDS011;702;49.466;11.086;2022-10-22T14:45:46;1.87;;;1.00;;
1414;SDS011;702;49.466;11.086;2022-10-22T14:48:13;1.10;;;0.70;;
1414;SDS011;702;49.466;11.086;2022-10-22T14:50:41;1.63;;;0.80;;
1414;SDS011;702;49.466;11.086;2022-10-22T14:53:09;1.63;;;0.90;;
1414;SDS011;702;49.466;11.086;2022-10-22T14:55:37;1.57;;;0.80;;
1414;SDS011;702;49.466;11.086;2022-10-22T14:58:05;2.80;;;0.80;;
1414;SDS011;702;49.466;11.086;2022-10-22T15:00:32;1.37;;;0.97;;
1414;SDS011;702;49.466;11.086;2022-10-22T15:03:02;1.80;;;0.70;;
1414;SDS011;702;49.466;11.086;2022-10-22T15:05:29;1.33;;;0.80;;
1414;SDS011;702;49.466;11.086;2022-10-22T15:07:56;0.90;;;0.80;;
1414;SDS011;702;49.466;11.086;2022-10-22T15:10:24;2.30;;;1.00;;
1414;SDS011;702;49.466;11.086;2022-10-22T15:12:51;2.83;;;0.90;;
1414;SDS011;702;49.466;11.086;2022-10-22T15:15:19;1.10;;;0.93;;
1414;SDS011;702;49.466;11.086;2022-10-22T15:17:46;2.90;;;0.80;;
1414;SDS011;702;49.466;11.086;2022-10-22T15:20:15;1.30;;;0.90;;
1414;SDS011;702;49.466;11.086;2022-10-22T15:22:42;1.07;;;0.97;;
1414;SDS011;702;49.466;11.086;2022-10-22T15:25:10;1.83;;;1.20;;
1414;SDS011;702;49.466;11.086;2022-10-22T15:27:39;2.13;;;1.07;;
1414;SDS011;702;49.466;11.086;2022-10-22T15:30:07;1.30;;;1.00;;
1414;SDS011;702;49.466;11.086;2022-10-22T15:32:34;3.97;;;1.23;;
1414;SDS011;702;49.466;11.086;2022-10-22T15:35:01;2.70;;;1.30;;
1414;SDS011;702;49.466;11.086;2022-10-22T15:37:31;1.40;;;0.93;;
1414;SDS011;702;49.466;11.086;2022-10-22T15:39:58;1.20;;;1.10;;
1414;SDS011;702;49.466;11.086;2022-10-22T15:42:27;1.80;;;1.10;;
1414;SDS011;702;49.466;11.086;2022-10-22T15:44:56;3.97;;;1.27;;